createdAt,value
2023-02-15T00:00:21.814Z,32.33
2023-02-15T00:02:49.333Z,38.93
2023-02-15T00:05:16.901Z,33.63
2023-02-15T00:07:44.430Z,23.17
2023-02-15T00:10:13.033Z,20.57
2023-02-15T00:12:40.556Z,18.83
2023-02-15T00:15:08.508Z,17.30
2023-02-15T00:17:35.923Z,17.83
2023-02-15T00:20:03.755Z,18.83
2023-02-15T00:22:31.244Z,16.47
2023-02-15T00:24:58.718Z,16.77
2023-02-15T00:27:26.173Z,18.00
2023-02-15T00:29:53.706Z,17.90
2023-02-15T00:32:21.195Z,26.13
2023-02-15T00:34:49.827Z,22.93
2023-02-15T00:37:17.575Z,20.67
2023-02-15T00:39:48.248Z,22.70
2023-02-15T00:42:15.723Z,23.57
2023-02-15T00:44:43.236Z,20.17
2023-02-15T00:47:10.640Z,20.10
2023-02-15T00:49:39.573Z,21.17
2023-02-15T00:52:07.053Z,22.63
2023-02-15T00:54:35.719Z,22.80
2023-02-15T00:57:03.193Z,24.00
2023-02-15T00:59:30.787Z,24.90
2023-02-15T01:01:58.494Z,22.47
2023-02-15T01:04:26.025Z,27.97
2023-02-15T01:06:53.554Z,23.27
2023-02-15T01:09:21.149Z,25.10
2023-02-15T01:11:48.694Z,23.57
2023-02-15T01:14:16.148Z,22.83
2023-02-15T01:16:43.602Z,24.57
2023-02-15T01:19:11.073Z,27.77
2023-02-15T01:21:41.644Z,27.17
2023-02-15T01:24:15.550Z,24.83
2023-02-15T01:26:43.037Z,26.87
2023-02-15T01:29:10.493Z,32.50
2023-02-15T01:31:40.170Z,32.80
2023-02-15T01:34:07.925Z,34.23
2023-02-15T01:36:36.377Z,34.67
2023-02-15T01:39:04.039Z,29.80
2023-02-15T01:41:32.480Z,31.93
2023-02-15T01:44:04.265Z,31.23
2023-02-15T01:46:51.406Z,30.80
2023-02-15T01:49:23.867Z,32.67
2023-02-15T01:51:53.909Z,30.33
2023-02-15T01:54:34.994Z,32.53
2023-02-15T01:57:12.134Z,34.37
2023-02-15T01:59:43.006Z,27.63
2023-02-15T02:02:16.506Z,24.77
2023-02-15T02:04:56.596Z,23.90
2023-02-15T02:07:30.294Z,24.07
2023-02-15T02:10:02.358Z,25.10
2023-02-15T02:12:30.896Z,28.93
2023-02-15T02:14:59.126Z,47.10
2023-02-15T02:18:28.176Z,64.07
2023-02-15T02:21:12.032Z,47.97
2023-02-15T02:24:18.224Z,35.67
2023-02-15T02:27:23.876Z,46.77
2023-02-15T02:54:08.513Z,27.97
2023-02-15T02:56:42.227Z,26.33
2023-02-15T02:59:30.363Z,14.77
2023-02-15T03:02:17.603Z,15.97
2023-02-15T03:04:59.605Z,15.57
2023-02-15T03:07:30.758Z,19.53
2023-02-15T03:10:03.832Z,17.83
2023-02-15T03:12:38.724Z,22.13
2023-02-15T03:15:22.582Z,24.37
2023-02-15T03:17:57.834Z,23.13
2023-02-15T03:20:32.302Z,22.17
2023-02-15T03:23:10.705Z,18.97
2023-02-15T03:25:47.682Z,17.93
2023-02-15T03:28:22.194Z,20.77
2023-02-15T03:30:55.018Z,119.20
2023-02-15T03:33:25.534Z,32.87
2023-02-15T03:36:23.694Z,67.20
2023-02-15T03:39:14.497Z,59.80
2023-02-15T03:41:58.567Z,21.93
2023-02-15T03:44:33.125Z,17.90
2023-02-15T03:47:09.870Z,14.23
2023-02-15T03:49:59.241Z,29.93
2023-02-15T03:52:29.422Z,32.90
2023-02-15T03:54:57.471Z,35.73
2023-02-15T03:57:48.554Z,118.70
2023-02-15T04:00:44.464Z,18.70
2023-02-15T04:03:24.896Z,17.00
2023-02-15T04:05:52.524Z,20.47
2023-02-15T04:08:20.118Z,36.13
2023-02-15T04:10:53.606Z,29.37
2023-02-15T04:13:23.975Z,31.30
2023-02-15T04:16:08.156Z,22.53
2023-02-15T04:19:03.750Z,22.97
2023-02-15T04:21:50.610Z,20.60
2023-02-15T04:24:37.973Z,19.87
2023-02-15T04:27:06.842Z,20.53
2023-02-15T04:29:34.605Z,20.93
2023-02-15T04:32:03.574Z,22.67
2023-02-15T04:34:31.053Z,26.07
2023-02-15T04:36:58.568Z,30.10
2023-02-15T04:39:26.015Z,45.63
2023-02-15T04:41:53.481Z,32.07
2023-02-15T04:44:20.885Z,29.77
2023-02-15T04:46:48.371Z,30.13
2023-02-15T04:49:16.538Z,28.37
2023-02-15T04:51:43.977Z,43.33
2023-02-15T04:54:11.512Z,47.07
2023-02-15T04:56:39.985Z,43.57
2023-02-15T04:59:08.038Z,37.33
2023-02-15T05:01:35.522Z,37.50
2023-02-15T05:04:03.636Z,42.90
2023-02-15T05:06:31.298Z,37.07
2023-02-15T05:09:00.269Z,44.43
2023-02-15T05:11:29.176Z,43.90
2023-02-15T05:13:56.757Z,44.87
2023-02-15T05:16:24.448Z,33.00
2023-02-15T05:18:52.046Z,39.90
2023-02-15T05:21:22.666Z,39.13
2023-02-15T05:23:50.149Z,37.83
2023-02-15T05:26:43.031Z,37.13
2023-02-15T05:29:11.418Z,35.47
2023-02-15T05:31:39.806Z,38.17
2023-02-15T05:34:07.504Z,35.20
2023-02-15T05:36:34.924Z,40.53
2023-02-15T05:39:02.307Z,33.83
2023-02-15T05:41:30.076Z,42.00
2023-02-15T05:43:57.894Z,42.17
2023-02-15T05:46:25.429Z,34.53
2023-02-15T05:48:52.875Z,39.03
2023-02-15T05:51:20.312Z,39.10
2023-02-15T05:53:47.897Z,44.50
2023-02-15T05:56:15.501Z,48.77
2023-02-15T05:58:44.002Z,43.70
2023-02-15T06:01:14.642Z,45.70
2023-02-15T06:03:42.647Z,57.70
2023-02-15T06:06:10.518Z,57.23
2023-02-15T06:08:39.711Z,50.40
2023-02-15T06:11:07.934Z,51.97
2023-02-15T06:13:38.590Z,38.10
2023-02-15T06:16:07.814Z,39.43
2023-02-15T06:18:36.756Z,48.90
2023-02-15T06:21:04.541Z,43.33
2023-02-15T06:23:32.537Z,44.80
2023-02-15T06:26:00.080Z,56.80
2023-02-15T06:28:27.694Z,100.67
2023-02-15T06:30:55.747Z,80.73
2023-02-15T06:33:23.590Z,72.60
2023-02-15T06:35:51.094Z,74.53
2023-02-15T06:38:18.619Z,61.60
2023-02-15T06:40:46.089Z,50.40
2023-02-15T06:43:13.527Z,47.40
2023-02-15T06:45:42.064Z,41.23
2023-02-15T06:48:09.627Z,42.73
2023-02-15T06:50:37.147Z,39.93
2023-02-15T06:53:04.842Z,38.87
2023-02-15T06:55:32.414Z,38.50
2023-02-15T06:57:59.833Z,36.43
2023-02-15T07:00:27.354Z,31.97
2023-02-15T07:02:59.182Z,28.33
2023-02-15T07:05:32.265Z,25.30
2023-02-15T07:08:01.411Z,43.37
2023-02-15T07:10:31.784Z,29.50
2023-02-15T07:12:59.325Z,31.53
2023-02-15T07:15:26.784Z,33.83
2023-02-15T07:17:54.296Z,24.93
2023-02-15T07:20:24.082Z,30.47
2023-02-15T07:22:52.391Z,34.57
2023-02-15T07:25:20.228Z,30.37
2023-02-15T07:27:47.999Z,30.57
2023-02-15T07:30:18.347Z,33.53
2023-02-15T07:33:05.773Z,32.40
2023-02-15T07:35:34.767Z,30.47
2023-02-15T07:38:02.742Z,29.30
2023-02-15T07:40:30.193Z,35.90
2023-02-15T07:43:00.196Z,28.27
2023-02-15T07:45:28.187Z,32.83
2023-02-15T07:47:55.913Z,37.77
2023-02-15T07:50:23.473Z,26.07
2023-02-15T07:52:50.957Z,25.37
2023-02-15T07:55:19.561Z,24.00
2023-02-15T07:57:49.459Z,22.53
2023-02-15T08:00:22.490Z,28.83
2023-02-15T08:03:13.821Z,23.30
2023-02-15T08:05:43.988Z,22.50
2023-02-15T08:08:30.695Z,28.10
2023-02-15T08:11:22.592Z,26.07
2023-02-15T08:14:00.508Z,27.17
2023-02-15T08:16:42.597Z,27.53
2023-02-15T08:19:11.437Z,26.27
2023-02-15T08:21:42.594Z,27.13
2023-02-15T08:24:12.686Z,26.03
2023-02-15T08:26:42.390Z,24.97
2023-02-15T08:29:11.006Z,27.03
2023-02-15T08:31:39.471Z,23.10
2023-02-15T08:34:07.723Z,24.30
2023-02-15T08:36:35.473Z,30.77
2023-02-15T08:39:06.046Z,30.97
2023-02-15T08:41:36.624Z,25.10
2023-02-15T08:44:07.740Z,27.37
2023-02-15T08:46:38.721Z,22.70
2023-02-15T08:49:06.682Z,24.53
2023-02-15T08:51:37.899Z,23.10
2023-02-15T08:54:09.542Z,21.97
2023-02-15T08:56:40.358Z,23.13
2023-02-15T08:59:17.383Z,21.10
2023-02-15T09:01:46.242Z,19.70
2023-02-15T09:04:14.213Z,19.63
2023-02-15T09:06:46.407Z,20.83
2023-02-15T09:09:16.853Z,19.87
2023-02-15T09:11:47.693Z,18.37
2023-02-15T09:14:18.755Z,17.23
2023-02-15T09:16:49.831Z,19.43
2023-02-15T09:19:19.477Z,17.23
2023-02-15T09:21:47.755Z,17.10
2023-02-15T09:24:18.197Z,15.50
2023-02-15T09:26:49.670Z,16.97
2023-02-15T09:29:19.669Z,19.23
2023-02-15T09:31:51.094Z,17.20
2023-02-15T09:34:22.905Z,15.50
2023-02-15T09:36:52.085Z,20.37
2023-02-15T09:39:26.573Z,16.37
2023-02-15T09:42:13.185Z,17.07
2023-02-15T09:45:05.319Z,17.87
2023-02-15T09:47:54.440Z,12.87
2023-02-15T09:51:03.948Z,19.77
2023-02-15T09:53:53.040Z,15.43
2023-02-15T09:56:29.550Z,13.93
2023-02-15T09:59:57.022Z,13.40
2023-02-15T10:02:43.077Z,13.00
2023-02-15T10:05:47.933Z,17.20
2023-02-15T10:08:54.301Z,13.17
2023-02-15T10:11:43.020Z,14.33
2023-02-15T10:14:38.753Z,18.07
2023-02-15T10:17:15.437Z,13.43
2023-02-15T10:19:55.256Z,14.37
2023-02-15T10:23:29.927Z,9.80
2023-02-15T10:26:15.024Z,12.70
2023-02-15T10:28:58.601Z,10.40
2023-02-15T10:31:51.900Z,8.40
2023-02-15T10:34:40.605Z,11.13
2023-02-15T10:37:54.424Z,13.10
2023-02-15T10:40:34.051Z,12.80
2023-02-15T10:43:49.712Z,16.13
2023-02-15T10:46:38.798Z,14.17
2023-02-15T10:49:27.470Z,9.37
2023-02-15T10:51:57.869Z,9.97
2023-02-15T10:54:42.140Z,8.00
2023-02-15T10:57:56.330Z,9.53
2023-02-15T11:01:03.339Z,10.30
2023-02-15T11:03:59.710Z,10.53
2023-02-15T11:06:29.080Z,10.13
2023-02-15T11:09:04.006Z,21.07
2023-02-15T11:11:46.081Z,10.87
2023-02-15T11:14:55.498Z,11.00
2023-02-15T11:17:51.693Z,11.60
2023-02-15T11:20:33.512Z,9.37
2023-02-15T11:23:03.278Z,16.60
2023-02-15T11:25:35.275Z,10.93
2023-02-15T11:28:11.390Z,11.77
2023-02-15T11:30:55.535Z,11.53
2023-02-15T11:33:36.369Z,14.73
2023-02-15T11:36:19.215Z,11.60
2023-02-15T11:38:52.273Z,13.27
2023-02-15T11:41:29.741Z,14.37
2023-02-15T11:44:12.303Z,11.23
2023-02-15T11:46:40.172Z,12.13
2023-02-15T11:49:27.121Z,12.13
2023-02-15T11:51:57.076Z,150.03
2023-02-15T11:54:36.644Z,12.23
2023-02-15T11:57:33.872Z,14.17
2023-02-15T12:00:27.301Z,14.63
2023-02-15T12:03:01.329Z,14.07
2023-02-15T12:05:29.321Z,14.60
2023-02-15T12:08:10.228Z,12.77
2023-02-15T12:10:50.120Z,15.43
2023-02-15T12:13:20.430Z,12.77
2023-02-15T12:15:52.648Z,17.30
2023-02-15T12:18:48.458Z,14.80
2023-02-15T12:21:27.614Z,12.70
2023-02-15T12:24:03.755Z,16.73
2023-02-15T12:26:36.328Z,14.30
2023-02-15T12:29:29.231Z,12.63
2023-02-15T12:31:57.206Z,40.87
2023-02-15T12:34:44.748Z,22.80
2023-02-15T12:37:35.630Z,15.00
2023-02-15T12:40:24.873Z,14.47
2023-02-15T12:42:52.364Z,13.30
2023-02-15T12:45:33.350Z,14.30
2023-02-15T12:48:21.588Z,16.83
2023-02-15T12:50:55.096Z,12.37
2023-02-15T12:53:34.555Z,12.13
2023-02-15T12:56:08.139Z,14.83
2023-02-15T12:58:41.088Z,13.40
2023-02-15T13:01:22.308Z,14.87
2023-02-15T13:04:05.831Z,17.67
2023-02-15T13:06:36.814Z,21.97
2023-02-15T13:09:21.875Z,13.17
2023-02-15T13:11:49.510Z,31.60
2023-02-15T13:14:29.907Z,12.53
2023-02-15T13:17:02.930Z,24.67
2023-02-15T13:19:43.595Z,21.17
2023-02-15T13:22:36.688Z,13.20
2023-02-15T13:25:23.953Z,11.73
2023-02-15T13:27:59.330Z,12.13
2023-02-15T13:30:36.223Z,12.87
2023-02-15T13:33:33.192Z,14.90
2023-02-15T13:36:21.689Z,17.13
2023-02-15T13:39:35.430Z,13.18
2023-02-15T13:42:07.349Z,13.63
2023-02-15T13:44:40.863Z,13.38
2023-02-15T13:47:26.450Z,41.65
2023-02-15T13:50:33.572Z,13.90
2023-02-15T13:53:40.562Z,13.02
2023-02-15T13:56:22.810Z,10.55
2023-02-15T13:59:30.008Z,10.05
2023-02-15T14:02:14.781Z,17.10
2023-02-15T14:05:26.971Z,10.00
2023-02-15T14:08:06.008Z,10.85
2023-02-15T14:11:09.301Z,12.98
2023-02-15T14:13:48.722Z,12.82
2023-02-15T14:17:07.287Z,10.55
2023-02-15T14:19:58.664Z,10.23
2023-02-15T14:22:47.427Z,90.57
2023-02-15T14:25:31.498Z,13.10
2023-02-15T14:28:18.549Z,11.02
2023-02-15T14:30:52.768Z,12.93
2023-02-15T14:33:43.811Z,50.83
2023-02-15T14:36:20.515Z,37.70
2023-02-15T14:39:35.045Z,18.60
2023-02-15T14:42:42.158Z,12.10
2023-02-15T14:45:56.545Z,18.27
2023-02-15T14:48:43.249Z,11.70
2023-02-15T14:51:11.299Z,14.13
2023-02-15T14:53:40.924Z,12.93
2023-02-15T14:56:15.276Z,25.80
2023-02-15T14:58:54.888Z,14.77
2023-02-15T15:01:34.592Z,29.92
2023-02-15T15:04:23.259Z,13.88
2023-02-15T15:07:24.174Z,12.30
2023-02-15T15:10:27.616Z,22.00
2023-02-15T15:12:57.779Z,15.70
2023-02-15T15:15:31.437Z,12.45
2023-02-15T15:18:08.991Z,13.35
2023-02-15T15:20:52.725Z,12.95
2023-02-15T15:23:20.162Z,22.55
2023-02-15T15:26:22.447Z,13.85
2023-02-15T15:28:50.211Z,12.00
2023-02-15T15:31:21.758Z,11.98
2023-02-15T15:34:18.583Z,13.52
2023-02-15T15:37:10.195Z,17.80
2023-02-15T15:40:08.151Z,11.52
2023-02-15T15:43:10.286Z,16.43
2023-02-15T15:46:19.044Z,21.33
2023-02-15T15:48:46.818Z,18.63
2023-02-15T15:51:29.517Z,28.27
2023-02-15T15:53:58.022Z,25.67
2023-02-15T15:56:32.537Z,31.93
2023-02-15T15:59:07.289Z,39.33
2023-02-15T16:01:53.561Z,34.00
2023-02-15T16:04:35.180Z,41.80
2023-02-15T16:07:35.208Z,39.03
2023-02-15T16:10:18.848Z,31.70
2023-02-15T16:12:52.915Z,27.83
2023-02-15T16:15:37.957Z,29.67
2023-02-15T16:18:27.645Z,33.50
2023-02-15T16:21:03.587Z,25.57
2023-02-15T16:23:39.916Z,25.47
2023-02-15T16:26:48.001Z,31.37
2023-02-15T16:29:18.431Z,29.57
2023-02-15T16:32:07.236Z,22.13
2023-02-15T16:34:35.870Z,23.93
2023-02-15T16:37:18.991Z,22.93
2023-02-15T16:39:50.211Z,26.47
2023-02-15T16:42:21.134Z,29.00
2023-02-15T16:45:18.933Z,35.70
2023-02-15T16:47:53.497Z,33.80
2023-02-15T16:50:34.484Z,33.67
2023-02-15T16:53:08.328Z,34.43
2023-02-15T16:55:44.251Z,34.33
2023-02-15T16:58:18.946Z,35.53
2023-02-15T17:00:47.752Z,35.67
2023-02-15T17:03:15.342Z,39.07
2023-02-15T17:05:50.943Z,32.83
2023-02-15T17:08:39.836Z,34.83
2023-02-15T17:11:24.992Z,43.60
2023-02-15T17:14:07.716Z,26.50
2023-02-15T17:16:38.665Z,23.77
2023-02-15T17:19:27.532Z,31.93
2023-02-15T17:22:04.352Z,42.83
2023-02-15T17:24:46.465Z,44.53
2023-02-15T17:27:23.481Z,41.73
2023-02-15T17:30:00.465Z,37.00
2023-02-15T17:32:35.381Z,39.17
2023-02-15T17:35:09.535Z,43.40
2023-02-15T17:37:45.461Z,59.07
2023-02-15T17:40:31.623Z,63.23
2023-02-15T17:43:19.138Z,60.90
2023-02-15T17:45:51.606Z,65.13
2023-02-15T17:48:35.743Z,98.70
2023-02-15T17:51:06.839Z,91.80
2023-02-15T17:53:36.693Z,134.83
2023-02-15T17:56:10.942Z,115.30
2023-02-15T17:58:39.407Z,63.47
2023-02-15T18:01:34.123Z,92.30
2023-02-15T18:04:20.821Z,73.57
2023-02-15T18:07:07.805Z,51.13
2023-02-15T18:09:54.031Z,64.10
2023-02-15T18:12:25.028Z,56.27
2023-02-15T18:15:06.177Z,71.33
2023-02-15T18:17:49.112Z,53.40
2023-02-15T18:20:30.117Z,53.30
2023-02-15T18:22:58.206Z,59.00
2023-02-15T18:25:27.824Z,39.57
2023-02-15T18:27:58.906Z,36.87
2023-02-15T18:30:27.189Z,35.47
2023-02-15T18:33:01.300Z,27.23
2023-02-15T18:35:33.961Z,27.60
2023-02-15T18:38:05.465Z,26.57
2023-02-15T18:40:33.101Z,24.03
2023-02-15T18:43:01.396Z,22.30
2023-02-15T18:45:36.216Z,22.73
2023-02-15T18:48:04.694Z,30.67
2023-02-15T18:50:36.581Z,44.20
2023-02-15T18:53:13.267Z,59.13
2023-02-15T18:55:40.758Z,48.33
2023-02-15T18:58:18.447Z,43.07
2023-02-15T19:00:50.384Z,55.43
2023-02-15T19:03:19.238Z,50.93
2023-02-15T19:05:48.741Z,39.77
2023-02-15T19:08:21.980Z,74.53
2023-02-15T19:10:53.447Z,117.30
2023-02-15T19:13:22.745Z,107.50
2023-02-15T19:15:52.981Z,109.17
2023-02-15T19:18:21.653Z,104.23
2023-02-15T19:20:50.907Z,91.30
2023-02-15T19:23:22.672Z,82.70
2023-02-15T19:25:53.157Z,99.17
2023-02-15T19:28:32.807Z,117.10
2023-02-15T19:31:00.438Z,137.17
2023-02-15T19:33:28.498Z,129.43
2023-02-15T19:35:57.895Z,100.93
2023-02-15T19:38:36.589Z,59.10
2023-02-15T19:41:09.730Z,52.30
2023-02-15T19:43:37.761Z,46.80
2023-02-15T19:46:05.745Z,37.53
2023-02-15T19:48:36.597Z,33.27
2023-02-15T19:51:06.150Z,31.83
2023-02-15T19:53:34.089Z,31.43
2023-02-15T19:56:03.967Z,27.77
2023-02-15T19:58:34.508Z,25.07
2023-02-15T20:01:04.373Z,23.97
2023-02-15T20:03:32.282Z,24.20
2023-02-15T20:06:01.261Z,26.67
2023-02-15T20:08:30.800Z,28.30
2023-02-15T20:10:59.506Z,31.37
2023-02-15T20:13:28.808Z,29.37
2023-02-15T20:16:16.322Z,31.53
2023-02-15T20:18:46.516Z,26.77
2023-02-15T20:21:17.575Z,26.20
2023-02-15T20:23:46.698Z,34.83
2023-02-15T20:26:18.490Z,35.87
2023-02-15T20:28:47.230Z,36.07
2023-02-15T20:31:18.728Z,29.37
2023-02-15T20:33:50.490Z,31.70
2023-02-15T20:36:21.123Z,28.33
2023-02-15T20:38:48.944Z,25.30
2023-02-15T20:41:36.032Z,19.77
2023-02-15T20:44:28.524Z,28.37
2023-02-15T20:46:59.291Z,168.57
2023-02-15T20:49:29.478Z,167.50
2023-02-15T20:51:58.445Z,112.50
2023-02-15T20:54:51.501Z,48.13
2023-02-15T20:57:40.065Z,28.80
2023-02-15T21:00:26.202Z,31.20
2023-02-15T21:02:59.130Z,26.40
2023-02-15T21:05:30.911Z,26.23
2023-02-15T21:07:58.534Z,21.27
2023-02-15T21:10:32.626Z,22.43
2023-02-15T21:13:01.835Z,19.47
2023-02-15T21:15:34.340Z,17.93
2023-02-15T21:18:27.237Z,16.63
2023-02-15T21:21:03.869Z,13.90
2023-02-15T21:23:40.610Z,16.40
2023-02-15T21:26:19.552Z,15.47
2023-02-15T21:28:48.258Z,14.23
2023-02-15T21:31:24.578Z,128.20
2023-02-15T21:33:52.553Z,106.70
2023-02-15T21:36:24.362Z,52.60
2023-02-15T21:38:53.820Z,58.33
2023-02-15T21:41:42.693Z,116.90
2023-02-15T21:44:40.356Z,61.40
2023-02-15T21:47:38.326Z,61.13
2023-02-15T21:50:27.404Z,56.57
2023-02-15T21:52:55.272Z,61.27
2023-02-15T21:55:22.868Z,53.37
2023-02-15T21:57:50.513Z,38.07
2023-02-15T22:00:21.699Z,31.30
2023-02-15T22:02:54.263Z,26.33
2023-02-15T22:05:27.420Z,28.50
2023-02-15T22:07:55.651Z,35.13
2023-02-15T22:10:24.454Z,36.77
2023-02-15T22:12:53.138Z,46.93
2023-02-15T22:15:23.649Z,50.93
2023-02-15T22:17:53.023Z,43.17
2023-02-15T22:20:23.797Z,46.43
2023-02-15T22:22:53.162Z,54.83
2023-02-15T22:25:26.449Z,51.10
2023-02-15T22:27:55.670Z,52.00
2023-02-15T22:30:29.392Z,48.90
2023-02-15T22:32:59.019Z,43.57
2023-02-15T22:35:29.110Z,39.67
2023-02-15T22:37:56.740Z,45.47
2023-02-15T22:40:32.699Z,33.83
2023-02-15T22:43:05.851Z,34.53
2023-02-15T22:45:36.302Z,32.93
2023-02-15T22:48:04.306Z,34.30
2023-02-15T22:50:34.792Z,32.20
2023-02-15T22:53:06.383Z,27.97
2023-02-15T22:55:38.041Z,32.63
2023-02-15T22:58:06.354Z,34.23
2023-02-15T23:00:40.567Z,36.53
2023-02-15T23:03:24.804Z,36.27
2023-02-15T23:05:53.252Z,39.70
2023-02-15T23:08:21.387Z,42.93
2023-02-15T23:10:56.216Z,52.40
2023-02-15T23:13:30.275Z,51.63
2023-02-15T23:16:04.311Z,46.53
2023-02-15T23:18:39.445Z,54.87
2023-02-15T23:21:22.987Z,45.70
2023-02-15T23:23:56.508Z,48.13
2023-02-15T23:26:31.255Z,40.53
2023-02-15T23:29:01.443Z,28.70
2023-02-15T23:31:35.046Z,30.20
2023-02-15T23:34:13.128Z,22.60
2023-02-15T23:36:40.622Z,26.27
2023-02-15T23:39:41.728Z,22.93
2023-02-15T23:42:30.752Z,19.90
2023-02-15T23:44:58.933Z,26.73
2023-02-15T23:47:55.013Z,25.47
2023-02-15T23:50:25.568Z,33.47
2023-02-15T23:52:55.405Z,33.03
2023-02-15T23:55:25.589Z,24.13
2023-02-15T23:57:57.047Z,26.67
